sensor_id;sensor_type;location;lat;lon;timestamp;P1;durP1;ratioP1;P2;durP2;ratioP2
28353;SDS011;15603;50.878;8.036;2023-11-19T00:01:10;2.22;;;1.27;;
28353;SDS011;15603;50.878;8.036;2023-11-19T00:03:37;3.55;;;1.20;;
28353;SDS011;15603;50.878;8.036;2023-11-19T00:06:04;1.58;;;0.77;;
28353;SDS011;15603;50.878;8.036;2023-11-19T00:08:31;3.97;;;1.10;;
28353;SDS011;15603;50.878;8.036;2023-11-19T00:10:59;4.35;;;1.00;;
28353;SDS011;15603;50.878;8.036;2023-11-19T00:13:26;4.85;;;1.25;;
28353;SDS011;15603;50.878;8.036;2023-11-19T00:15:53;2.72;;;0.98;;
28353;SDS011;15603;50.878;8.036;2023-11-19T00:18:20;1.35;;;0.77;;
28353;SDS011;15603;50.878;8.036;2023-11-19T00:20:48;0.60;;;0.47;;
28353;SDS011;15603;50.878;8.036;2023-11-19T00:23:15;1.10;;;0.52;;
28353;SDS011;15603;50.878;8.036;2023-11-19T00:25:42;2.47;;;0.77;;
28353;SDS011;15603;50.878;8.036;2023-11-19T00:28:09;1.00;;;0.60;;
28353;SDS011;15603;50.878;8.036;2023-11-19T00:30:37;1.27;;;0.60;;
28353;SDS011;15603;50.878;8.036;2023-11-19T00:33:04;0.80;;;0.50;;
28353;SDS011;15603;50.878;8.036;2023-11-19T00:35:31;7.32;;;0.52;;
28353;SDS011;15603;50.878;8.036;2023-11-19T00:37:59;2.30;;;0.50;;
28353;SDS011;15603;50.878;8.036;2023-11-19T00:40:27;5.25;;;0.52;;
28353;SDS011;15603;50.878;8.036;2023-11-19T00:42:54;2.20;;;0.47;;
28353;SDS011;15603;50.878;8.036;2023-11-19T00:45:21;0.40;;;0.30;;
28353;SDS011;15603;50.878;8.036;2023-11-19T00:47:48;0.73;;;0.40;;
28353;SDS011;15603;50.878;8.036;2023-11-19T00:50:15;1.23;;;0.75;;
28353;SDS011;15603;50.878;8.036;2023-11-19T00:52:43;0.20;;;0.20;;
28353;SDS011;15603;50.878;8.036;2023-11-19T00:55:10;1.90;;;1.05;;
28353;SDS011;15603;50.878;8.036;2023-11-19T00:57:38;6.88;;;1.48;;
28353;SDS011;15603;50.878;8.036;2023-11-19T01:00:05;0.85;;;0.40;;
28353;SDS011;15603;50.878;8.036;2023-11-19T01:02:46;0.95;;;0.70;;
28353;SDS011;15603;50.878;8.036;2023-11-19T01:05:13;0.38;;;0.35;;
28353;SDS011;15603;50.878;8.036;2023-11-19T01:07:41;1.63;;;0.40;;
28353;SDS011;15603;50.878;8.036;2023-11-19T01:10:08;0.20;;;0.20;;
28353;SDS011;15603;50.878;8.036;2023-11-19T01:12:35;0.40;;;0.32;;
28353;SDS011;15603;50.878;8.036;2023-11-19T01:15:05;0.85;;;0.45;;
28353;SDS011;15603;50.878;8.036;2023-11-19T01:17:33;1.63;;;0.52;;
28353;SDS011;15603;50.878;8.036;2023-11-19T01:20:01;0.32;;;0.30;;
28353;SDS011;15603;50.878;8.036;2023-11-19T01:22:29;2.20;;;0.35;;
28353;SDS011;15603;50.878;8.036;2023-11-19T01:24:56;0.30;;;0.30;;
28353;SDS011;15603;50.878;8.036;2023-11-19T01:27:23;0.30;;;0.30;;
28353;SDS011;15603;50.878;8.036;2023-11-19T01:29:51;2.33;;;0.40;;
28353;SDS011;15603;50.878;8.036;2023-11-19T01:32:18;1.02;;;0.30;;
28353;SDS011;15603;50.878;8.036;2023-11-19T01:34:45;0.20;;;0.20;;
28353;SDS011;15603;50.878;8.036;2023-11-19T01:37:13;0.17;;;0.13;;
28353;SDS011;15603;50.878;8.036;2023-11-19T01:39:44;0.82;;;0.52;;
28353;SDS011;15603;50.878;8.036;2023-11-19T01:42:11;0.30;;;0.30;;
28353;SDS011;15603;50.878;8.036;2023-11-19T01:44:39;1.10;;;0.22;;
28353;SDS011;15603;50.878;8.036;2023-11-19T01:47:06;1.85;;;0.30;;
28353;SDS011;15603;50.878;8.036;2023-11-19T01:49:33;0.20;;;0.20;;
28353;SDS011;15603;50.878;8.036;2023-11-19T01:52:01;0.93;;;0.50;;
28353;SDS011;15603;50.878;8.036;2023-11-19T01:54:29;1.33;;;0.40;;
28353;SDS011;15603;50.878;8.036;2023-11-19T01:56:56;5.22;;;0.30;;
28353;SDS011;15603;50.878;8.036;2023-11-19T01:59:23;2.15;;;0.43;;
28353;SDS011;15603;50.878;8.036;2023-11-19T02:01:54;0.30;;;0.28;;
28353;SDS011;15603;50.878;8.036;2023-11-19T02:04:25;0.60;;;0.20;;
28353;SDS011;15603;50.878;8.036;2023-11-19T02:06:54;1.10;;;0.20;;
28353;SDS011;15603;50.878;8.036;2023-11-19T02:09:24;0.25;;;0.10;;
28353;SDS011;15603;50.878;8.036;2023-11-19T02:11:52;0.10;;;0.10;;
28353;SDS011;15603;50.878;8.036;2023-11-19T02:14:21;0.30;;;0.30;;
28353;SDS011;15603;50.878;8.036;2023-11-19T02:16:52;0.98;;;0.40;;
28353;SDS011;15603;50.878;8.036;2023-11-19T02:19:20;0.10;;;0.10;;
28353;SDS011;15603;50.878;8.036;2023-11-19T02:21:47;1.05;;;0.30;;
28353;SDS011;15603;50.878;8.036;2023-11-19T02:24:14;0.30;;;0.30;;
28353;SDS011;15603;50.878;8.036;2023-11-19T02:29:53;0.90;;;0.20;;
28353;SDS011;15603;50.878;8.036;2023-11-19T02:32:27;1.55;;;0.10;;
28353;SDS011;15603;50.878;8.036;2023-11-19T02:34:56;2.65;;;0.15;;
28353;SDS011;15603;50.878;8.036;2023-11-19T02:37:38;9.43;;;0.20;;
28353;SDS011;15603;50.878;8.036;2023-11-19T02:40:05;0.08;;;0.08;;
28353;SDS011;15603;50.878;8.036;2023-11-19T02:42:36;0.10;;;0.10;;
28353;SDS011;15603;50.878;8.036;2023-11-19T02:45:03;0.10;;;0.10;;
28353;SDS011;15603;50.878;8.036;2023-11-19T02:47:33;3.22;;;0.20;;
28353;SDS011;15603;50.878;8.036;2023-11-19T02:50:01;1.75;;;0.20;;
28353;SDS011;15603;50.878;8.036;2023-11-19T02:52:28;0.32;;;0.10;;
28353;SDS011;15603;50.878;8.036;2023-11-19T02:54:55;0.20;;;0.10;;
28353;SDS011;15603;50.878;8.036;2023-11-19T02:57:23;0.25;;;0.10;;
28353;SDS011;15603;50.878;8.036;2023-11-19T02:59:51;0.47;;;0.20;;
28353;SDS011;15603;50.878;8.036;2023-11-19T03:02:19;0.10;;;0.10;;
28353;SDS011;15603;50.878;8.036;2023-11-19T03:04:46;0.65;;;0.20;;
28353;SDS011;15603;50.878;8.036;2023-11-19T03:07:13;0.30;;;0.30;;
28353;SDS011;15603;50.878;8.036;2023-11-19T03:09:41;0.30;;;0.20;;
28353;SDS011;15603;50.878;8.036;2023-11-19T03:12:08;0.30;;;0.20;;
28353;SDS011;15603;50.878;8.036;2023-11-19T03:14:36;1.33;;;0.20;;
28353;SDS011;15603;50.878;8.036;2023-11-19T03:17:04;2.75;;;0.17;;
28353;SDS011;15603;50.878;8.036;2023-11-19T03:19:32;2.22;;;0.28;;
28353;SDS011;15603;50.878;8.036;2023-11-19T03:22:01;1.08;;;0.20;;
28353;SDS011;15603;50.878;8.036;2023-11-19T03:24:28;0.00;;;0.00;;
28353;SDS011;15603;50.878;8.036;2023-11-19T03:26:55;3.75;;;0.30;;
28353;SDS011;15603;50.878;8.036;2023-11-19T03:29:23;1.90;;;0.38;;
28353;SDS011;15603;50.878;8.036;2023-11-19T03:31:50;0.10;;;0.10;;
28353;SDS011;15603;50.878;8.036;2023-11-19T03:34:17;0.20;;;0.20;;
28353;SDS011;15603;50.878;8.036;2023-11-19T03:36:45;1.05;;;0.15;;
28353;SDS011;15603;50.878;8.036;2023-11-19T03:39:12;0.45;;;0.10;;
28353;SDS011;15603;50.878;8.036;2023-11-19T03:41:39;3.03;;;0.30;;
28353;SDS011;15603;50.878;8.036;2023-11-19T03:44:08;0.20;;;0.17;;
28353;SDS011;15603;50.878;8.036;2023-11-19T03:46:35;0.22;;;0.15;;
28353;SDS011;15603;50.878;8.036;2023-11-19T03:49:03;0.20;;;0.20;;
28353;SDS011;15603;50.878;8.036;2023-11-19T03:51:33;0.98;;;0.28;;
28353;SDS011;15603;50.878;8.036;2023-11-19T03:54:02;0.32;;;0.22;;
28353;SDS011;15603;50.878;8.036;2023-11-19T03:56:29;0.20;;;0.20;;
28353;SDS011;15603;50.878;8.036;2023-11-19T03:58:57;2.78;;;0.25;;
28353;SDS011;15603;50.878;8.036;2023-11-19T04:01:24;0.10;;;0.10;;
28353;SDS011;15603;50.878;8.036;2023-11-19T04:03:52;0.30;;;0.10;;
28353;SDS011;15603;50.878;8.036;2023-11-19T04:06:19;3.03;;;0.20;;
28353;SDS011;15603;50.878;8.036;2023-11-19T04:08:46;3.40;;;0.43;;
28353;SDS011;15603;50.878;8.036;2023-11-19T04:11:13;0.10;;;0.10;;
28353;SDS011;15603;50.878;8.036;2023-11-19T04:13:40;1.85;;;0.40;;
28353;SDS011;15603;50.878;8.036;2023-11-19T04:16:07;3.42;;;0.20;;
28353;SDS011;15603;50.878;8.036;2023-11-19T04:18:35;1.33;;;0.30;;
28353;SDS011;15603;50.878;8.036;2023-11-19T04:21:05;2.28;;;0.20;;
28353;SDS011;15603;50.878;8.036;2023-11-19T04:23:33;0.10;;;0.10;;
28353;SDS011;15603;50.878;8.036;2023-11-19T04:26:03;1.20;;;0.38;;
28353;SDS011;15603;50.878;8.036;2023-11-19T04:28:34;0.40;;;0.28;;
28353;SDS011;15603;50.878;8.036;2023-11-19T04:31:02;0.57;;;0.20;;
28353;SDS011;15603;50.878;8.036;2023-11-19T04:33:30;4.05;;;0.55;;
28353;SDS011;15603;50.878;8.036;2023-11-19T04:35:57;0.93;;;0.28;;
28353;SDS011;15603;50.878;8.036;2023-11-19T04:38:24;2.70;;;0.77;;
28353;SDS011;15603;50.878;8.036;2023-11-19T04:40:53;3.00;;;0.20;;
28353;SDS011;15603;50.878;8.036;2023-11-19T04:43:20;0.90;;;0.47;;
28353;SDS011;15603;50.878;8.036;2023-11-19T04:45:47;0.40;;;0.20;;
28353;SDS011;15603;50.878;8.036;2023-11-19T04:48:15;4.32;;;0.52;;
28353;SDS011;15603;50.878;8.036;2023-11-19T04:50:42;3.30;;;0.30;;
28353;SDS011;15603;50.878;8.036;2023-11-19T04:53:09;1.27;;;0.60;;
28353;SDS011;15603;50.878;8.036;2023-11-19T04:55:36;2.60;;;0.20;;
28353;SDS011;15603;50.878;8.036;2023-11-19T04:58:03;0.90;;;0.10;;
28353;SDS011;15603;50.878;8.036;2023-11-19T05:00:30;6.43;;;0.43;;
28353;SDS011;15603;50.878;8.036;2023-11-19T05:02:57;0.60;;;0.20;;
28353;SDS011;15603;50.878;8.036;2023-11-19T05:05:24;3.08;;;0.60;;
28353;SDS011;15603;50.878;8.036;2023-11-19T05:07:52;3.83;;;0.40;;
28353;SDS011;15603;50.878;8.036;2023-11-19T05:10:19;2.38;;;0.47;;
28353;SDS011;15603;50.878;8.036;2023-11-19T05:12:46;4.53;;;0.80;;
28353;SDS011;15603;50.878;8.036;2023-11-19T05:15:13;5.93;;;0.60;;
28353;SDS011;15603;50.878;8.036;2023-11-19T05:17:41;6.00;;;0.47;;
28353;SDS011;15603;50.878;8.036;2023-11-19T05:20:08;1.35;;;0.30;;
28353;SDS011;15603;50.878;8.036;2023-11-19T05:22:42;4.10;;;0.88;;
28353;SDS011;15603;50.878;8.036;2023-11-19T05:25:09;0.82;;;0.47;;
28353;SDS011;15603;50.878;8.036;2023-11-19T05:27:37;7.53;;;0.90;;
28353;SDS011;15603;50.878;8.036;2023-11-19T05:30:05;1.92;;;0.40;;
28353;SDS011;15603;50.878;8.036;2023-11-19T05:32:34;5.88;;;0.65;;
28353;SDS011;15603;50.878;8.036;2023-11-19T05:35:01;3.55;;;0.45;;
28353;SDS011;15603;50.878;8.036;2023-11-19T05:37:28;1.83;;;0.35;;
28353;SDS011;15603;50.878;8.036;2023-11-19T05:39:55;1.88;;;0.40;;
28353;SDS011;15603;50.878;8.036;2023-11-19T05:42:22;4.30;;;0.60;;
28353;SDS011;15603;50.878;8.036;2023-11-19T05:44:51;5.20;;;0.68;;
28353;SDS011;15603;50.878;8.036;2023-11-19T05:47:18;6.75;;;0.45;;
28353;SDS011;15603;50.878;8.036;2023-11-19T05:49:46;2.78;;;0.47;;
28353;SDS011;15603;50.878;8.036;2023-11-19T05:52:13;1.02;;;0.30;;
28353;SDS011;15603;50.878;8.036;2023-11-19T05:54:40;7.13;;;0.40;;
28353;SDS011;15603;50.878;8.036;2023-11-19T05:57:08;4.43;;;0.30;;
28353;SDS011;15603;50.878;8.036;2023-11-19T05:59:36;0.75;;;0.35;;
28353;SDS011;15603;50.878;8.036;2023-11-19T06:02:03;7.60;;;0.50;;
28353;SDS011;15603;50.878;8.036;2023-11-19T06:04:31;8.05;;;0.63;;
28353;SDS011;15603;50.878;8.036;2023-11-19T06:06:58;15.15;;;2.22;;
28353;SDS011;15603;50.878;8.036;2023-11-19T06:09:25;9.50;;;1.00;;
28353;SDS011;15603;50.878;8.036;2023-11-19T06:11:52;3.05;;;0.57;;
28353;SDS011;15603;50.878;8.036;2023-11-19T06:14:19;3.10;;;0.75;;
28353;SDS011;15603;50.878;8.036;2023-11-19T06:16:46;4.65;;;0.85;;
28353;SDS011;15603;50.878;8.036;2023-11-19T06:19:13;14.77;;;1.40;;
28353;SDS011;15603;50.878;8.036;2023-11-19T06:21:41;7.05;;;0.98;;
28353;SDS011;15603;50.878;8.036;2023-11-19T06:24:08;7.82;;;0.95;;
28353;SDS011;15603;50.878;8.036;2023-11-19T06:26:35;3.97;;;0.55;;
28353;SDS011;15603;50.878;8.036;2023-11-19T06:29:02;8.45;;;1.10;;
28353;SDS011;15603;50.878;8.036;2023-11-19T06:31:30;14.23;;;1.80;;
28353;SDS011;15603;50.878;8.036;2023-11-19T06:33:57;5.20;;;1.10;;
28353;SDS011;15603;50.878;8.036;2023-11-19T06:36:24;10.95;;;1.20;;
28353;SDS011;15603;50.878;8.036;2023-11-19T06:38:53;6.90;;;0.93;;
28353;SDS011;15603;50.878;8.036;2023-11-19T06:41:20;10.23;;;1.27;;
28353;SDS011;15603;50.878;8.036;2023-11-19T06:43:48;8.82;;;0.80;;
28353;SDS011;15603;50.878;8.036;2023-11-19T06:46:16;9.98;;;1.00;;
28353;SDS011;15603;50.878;8.036;2023-11-19T06:48:43;5.22;;;0.88;;
28353;SDS011;15603;50.878;8.036;2023-11-19T06:51:11;6.20;;;0.90;;
28353;SDS011;15603;50.878;8.036;2023-11-19T06:53:40;10.63;;;1.52;;
28353;SDS011;15603;50.878;8.036;2023-11-19T06:56:20;8.25;;;1.23;;
28353;SDS011;15603;50.878;8.036;2023-11-19T06:58:48;11.32;;;1.60;;
28353;SDS011;15603;50.878;8.036;2023-11-19T07:01:16;17.70;;;1.30;;
28353;SDS011;15603;50.878;8.036;2023-11-19T07:03:45;5.38;;;1.23;;
28353;SDS011;15603;50.878;8.036;2023-11-19T07:06:14;11.88;;;1.90;;
28353;SDS011;15603;50.878;8.036;2023-11-19T07:08:42;8.77;;;1.00;;
28353;SDS011;15603;50.878;8.036;2023-11-19T07:11:11;8.30;;;1.35;;
28353;SDS011;15603;50.878;8.036;2023-11-19T07:13:41;12.38;;;1.10;;
28353;SDS011;15603;50.878;8.036;2023-11-19T07:16:08;11.57;;;2.15;;
28353;SDS011;15603;50.878;8.036;2023-11-19T07:18:36;9.65;;;1.00;;
28353;SDS011;15603;50.878;8.036;2023-11-19T07:21:04;15.95;;;2.00;;
28353;SDS011;15603;50.878;8.036;2023-11-19T07:23:31;10.48;;;1.50;;
28353;SDS011;15603;50.878;8.036;2023-11-19T07:26:00;11.30;;;1.70;;
28353;SDS011;15603;50.878;8.036;2023-11-19T07:28:27;14.80;;;2.85;;
28353;SDS011;15603;50.878;8.036;2023-11-19T07:30:55;9.65;;;1.23;;
28353;SDS011;15603;50.878;8.036;2023-11-19T07:33:23;14.57;;;1.48;;
28353;SDS011;15603;50.878;8.036;2023-11-19T07:35:50;22.85;;;2.00;;
28353;SDS011;15603;50.878;8.036;2023-11-19T07:38:17;19.67;;;1.85;;
28353;SDS011;15603;50.878;8.036;2023-11-19T07:40:45;17.95;;;2.00;;
28353;SDS011;15603;50.878;8.036;2023-11-19T07:43:14;16.50;;;2.15;;
28353;SDS011;15603;50.878;8.036;2023-11-19T07:45:42;10.10;;;1.52;;
28353;SDS011;15603;50.878;8.036;2023-11-19T07:48:11;15.05;;;1.75;;
28353;SDS011;15603;50.878;8.036;2023-11-19T07:50:40;11.35;;;1.60;;
28353;SDS011;15603;50.878;8.036;2023-11-19T07:53:10;14.48;;;1.90;;
28353;SDS011;15603;50.878;8.036;2023-11-19T07:55:39;19.65;;;2.00;;
28353;SDS011;15603;50.878;8.036;2023-11-19T07:58:08;16.77;;;2.63;;
28353;SDS011;15603;50.878;8.036;2023-11-19T08:00:36;13.05;;;1.70;;
28353;SDS011;15603;50.878;8.036;2023-11-19T08:03:04;7.97;;;1.45;;
28353;SDS011;15603;50.878;8.036;2023-11-19T08:05:31;7.82;;;1.45;;
28353;SDS011;15603;50.878;8.036;2023-11-19T08:07:59;33.65;;;2.15;;
28353;SDS011;15603;50.878;8.036;2023-11-19T08:10:26;17.67;;;2.03;;
28353;SDS011;15603;50.878;8.036;2023-11-19T08:12:53;15.15;;;1.70;;
28353;SDS011;15603;50.878;8.036;2023-11-19T08:15:21;13.68;;;2.17;;
28353;SDS011;15603;50.878;8.036;2023-11-19T08:17:51;17.23;;;1.42;;
28353;SDS011;15603;50.878;8.036;2023-11-19T08:20:18;17.83;;;1.65;;
28353;SDS011;15603;50.878;8.036;2023-11-19T08:22:45;15.73;;;1.77;;
28353;SDS011;15603;50.878;8.036;2023-11-19T08:25:12;12.85;;;2.25;;
28353;SDS011;15603;50.878;8.036;2023-11-19T08:27:40;12.95;;;1.40;;
28353;SDS011;15603;50.878;8.036;2023-11-19T08:30:07;17.17;;;2.75;;
28353;SDS011;15603;50.878;8.036;2023-11-19T08:32:35;13.98;;;2.35;;
28353;SDS011;15603;50.878;8.036;2023-11-19T08:35:03;19.90;;;2.28;;
28353;SDS011;15603;50.878;8.036;2023-11-19T08:37:30;21.30;;;2.47;;
28353;SDS011;15603;50.878;8.036;2023-11-19T08:39:58;19.23;;;2.13;;
28353;SDS011;15603;50.878;8.036;2023-11-19T08:42:26;13.55;;;1.60;;
28353;SDS011;15603;50.878;8.036;2023-11-19T08:44:53;15.77;;;2.03;;
28353;SDS011;15603;50.878;8.036;2023-11-19T08:47:21;14.85;;;2.40;;
28353;SDS011;15603;50.878;8.036;2023-11-19T08:49:52;28.13;;;2.40;;
28353;SDS011;15603;50.878;8.036;2023-11-19T08:52:23;20.63;;;2.28;;
28353;SDS011;15603;50.878;8.036;2023-11-19T08:54:50;17.50;;;2.03;;
28353;SDS011;15603;50.878;8.036;2023-11-19T08:57:17;13.40;;;1.80;;
28353;SDS011;15603;50.878;8.036;2023-11-19T08:59:44;18.98;;;2.20;;
28353;SDS011;15603;50.878;8.036;2023-11-19T09:02:13;10.27;;;1.85;;
28353;SDS011;15603;50.878;8.036;2023-11-19T09:04:40;16.23;;;2.30;;
28353;SDS011;15603;50.878;8.036;2023-11-19T09:07:08;22.80;;;2.08;;
28353;SDS011;15603;50.878;8.036;2023-11-19T09:09:38;25.27;;;2.13;;
28353;SDS011;15603;50.878;8.036;2023-11-19T09:12:05;16.90;;;2.00;;
28353;SDS011;15603;50.878;8.036;2023-11-19T09:14:32;18.38;;;2.15;;
28353;SDS011;15603;50.878;8.036;2023-11-19T09:16:59;10.70;;;1.45;;
28353;SDS011;15603;50.878;8.036;2023-11-19T09:19:26;31.10;;;3.42;;
28353;SDS011;15603;50.878;8.036;2023-11-19T09:21:54;14.75;;;2.10;;
28353;SDS011;15603;50.878;8.036;2023-11-19T09:24:21;17.48;;;1.88;;
28353;SDS011;15603;50.878;8.036;2023-11-19T09:26:48;14.05;;;1.83;;
28353;SDS011;15603;50.878;8.036;2023-11-19T09:29:15;29.63;;;2.80;;
28353;SDS011;15603;50.878;8.036;2023-11-19T09:31:43;17.50;;;2.72;;
28353;SDS011;15603;50.878;8.036;2023-11-19T09:34:10;12.15;;;1.60;;
28353;SDS011;15603;50.878;8.036;2023-11-19T09:36:37;20.58;;;1.92;;
28353;SDS011;15603;50.878;8.036;2023-11-19T09:39:04;11.35;;;2.60;;
28353;SDS011;15603;50.878;8.036;2023-11-19T09:41:32;17.60;;;1.77;;
28353;SDS011;15603;50.878;8.036;2023-11-19T09:43:59;21.98;;;2.53;;
28353;SDS011;15603;50.878;8.036;2023-11-19T09:46:27;10.70;;;1.70;;
28353;SDS011;15603;50.878;8.036;2023-11-19T09:48:55;15.07;;;2.40;;
28353;SDS011;15603;50.878;8.036;2023-11-19T09:51:23;31.00;;;2.90;;
28353;SDS011;15603;50.878;8.036;2023-11-19T09:53:51;22.73;;;2.47;;
28353;SDS011;15603;50.878;8.036;2023-11-19T09:56:18;22.33;;;1.70;;
28353;SDS011;15603;50.878;8.036;2023-11-19T09:58:46;21.60;;;2.45;;
28353;SDS011;15603;50.878;8.036;2023-11-19T10:01:14;34.53;;;3.63;;
28353;SDS011;15603;50.878;8.036;2023-11-19T10:03:45;21.40;;;2.72;;
28353;SDS011;15603;50.878;8.036;2023-11-19T10:06:15;16.55;;;2.50;;
28353;SDS011;15603;50.878;8.036;2023-11-19T10:08:42;13.18;;;2.17;;
28353;SDS011;15603;50.878;8.036;2023-11-19T10:11:10;29.00;;;2.65;;
28353;SDS011;15603;50.878;8.036;2023-11-19T10:13:38;19.95;;;2.53;;
28353;SDS011;15603;50.878;8.036;2023-11-19T10:16:09;20.75;;;3.72;;
28353;SDS011;15603;50.878;8.036;2023-11-19T10:18:45;16.52;;;3.05;;
28353;SDS011;15603;50.878;8.036;2023-11-19T10:21:13;15.85;;;2.05;;
28353;SDS011;15603;50.878;8.036;2023-11-19T10:23:54;19.13;;;2.03;;
28353;SDS011;15603;50.878;8.036;2023-11-19T10:26:26;13.50;;;1.87;;
28353;SDS011;15603;50.878;8.036;2023-11-19T10:28:55;14.30;;;1.88;;
28353;SDS011;15603;50.878;8.036;2023-11-19T10:31:22;15.55;;;2.25;;
28353;SDS011;15603;50.878;8.036;2023-11-19T10:33:52;15.05;;;1.70;;
28353;SDS011;15603;50.878;8.036;2023-11-19T10:36:20;17.60;;;3.83;;
28353;SDS011;15603;50.878;8.036;2023-11-19T10:38:53;11.80;;;1.67;;
28353;SDS011;15603;50.878;8.036;2023-11-19T10:41:27;17.48;;;1.92;;
28353;SDS011;15603;50.878;8.036;2023-11-19T10:43:59;22.25;;;2.83;;
28353;SDS011;15603;50.878;8.036;2023-11-19T10:46:36;17.40;;;1.90;;
28353;SDS011;15603;50.878;8.036;2023-11-19T10:49:08;12.95;;;2.00;;
28353;SDS011;15603;50.878;8.036;2023-11-19T10:51:35;17.33;;;2.33;;
28353;SDS011;15603;50.878;8.036;2023-11-19T10:54:03;16.60;;;2.47;;
28353;SDS011;15603;50.878;8.036;2023-11-19T10:56:34;23.35;;;2.53;;
28353;SDS011;15603;50.878;8.036;2023-11-19T10:59:02;21.35;;;2.83;;
28353;SDS011;15603;50.878;8.036;2023-11-19T11:01:34;22.58;;;1.92;;
28353;SDS011;15603;50.878;8.036;2023-11-19T11:04:15;26.35;;;2.40;;
28353;SDS011;15603;50.878;8.036;2023-11-19T11:06:49;24.48;;;2.25;;
28353;SDS011;15603;50.878;8.036;2023-11-19T11:09:18;26.98;;;2.50;;
28353;SDS011;15603;50.878;8.036;2023-11-19T11:11:46;19.38;;;2.10;;
28353;SDS011;15603;50.878;8.036;2023-11-19T11:14:15;18.08;;;2.97;;
28353;SDS011;15603;50.878;8.036;2023-11-19T11:16:45;20.35;;;2.13;;
28353;SDS011;15603;50.878;8.036;2023-11-19T11:19:15;23.95;;;2.97;;
28353;SDS011;15603;50.878;8.036;2023-11-19T11:21:44;20.63;;;2.88;;
28353;SDS011;15603;50.878;8.036;2023-11-19T11:38:16;18.50;;;1.77;;
28353;SDS011;15603;50.878;8.036;2023-11-19T11:43:46;22.35;;;2.67;;
28353;SDS011;15603;50.878;8.036;2023-11-19T11:49:01;16.38;;;2.28;;
28353;SDS011;15603;50.878;8.036;2023-11-19T11:54:09;13.52;;;2.47;;
28353;SDS011;15603;50.878;8.036;2023-11-19T12:02:09;19.25;;;2.45;;
28353;SDS011;15603;50.878;8.036;2023-11-19T12:04:41;21.98;;;2.67;;
28353;SDS011;15603;50.878;8.036;2023-11-19T12:07:12;14.63;;;1.63;;
28353;SDS011;15603;50.878;8.036;2023-11-19T12:09:43;27.33;;;2.53;;
28353;SDS011;15603;50.878;8.036;2023-11-19T12:14:59;14.50;;;1.70;;
28353;SDS011;15603;50.878;8.036;2023-11-19T12:17:36;19.98;;;2.70;;
28353;SDS011;15603;50.878;8.036;2023-11-19T12:20:06;23.50;;;2.65;;
28353;SDS011;15603;50.878;8.036;2023-11-19T12:22:38;21.13;;;2.40;;
28353;SDS011;15603;50.878;8.036;2023-11-19T12:25:07;15.88;;;2.65;;
28353;SDS011;15603;50.878;8.036;2023-11-19T12:27:36;12.85;;;1.85;;
28353;SDS011;15603;50.878;8.036;2023-11-19T12:30:04;24.40;;;2.38;;
28353;SDS011;15603;50.878;8.036;2023-11-19T12:32:41;14.00;;;1.75;;
28353;SDS011;15603;50.878;8.036;2023-11-19T12:35:10;15.27;;;2.13;;
28353;SDS011;15603;50.878;8.036;2023-11-19T12:40:15;19.85;;;2.53;;
28353;SDS011;15603;50.878;8.036;2023-11-19T12:42:44;21.73;;;2.13;;
28353;SDS011;15603;50.878;8.036;2023-11-19T12:45:12;16.08;;;1.80;;
28353;SDS011;15603;50.878;8.036;2023-11-19T12:47:40;12.85;;;2.08;;
28353;SDS011;15603;50.878;8.036;2023-11-19T12:50:08;16.42;;;1.58;;
28353;SDS011;15603;50.878;8.036;2023-11-19T12:52:36;18.90;;;2.20;;
28353;SDS011;15603;50.878;8.036;2023-11-19T12:55:05;13.30;;;1.55;;
28353;SDS011;15603;50.878;8.036;2023-11-19T12:57:53;12.70;;;1.38;;
28353;SDS011;15603;50.878;8.036;2023-11-19T13:00:22;10.85;;;1.75;;
28353;SDS011;15603;50.878;8.036;2023-11-19T13:02:53;20.63;;;2.38;;
28353;SDS011;15603;50.878;8.036;2023-11-19T13:05:24;14.43;;;2.35;;
28353;SDS011;15603;50.878;8.036;2023-11-19T13:08:13;13.73;;;2.22;;
28353;SDS011;15603;50.878;8.036;2023-11-19T13:10:52;14.73;;;2.05;;
28353;SDS011;15603;50.878;8.036;2023-11-19T13:13:22;19.38;;;2.33;;
28353;SDS011;15603;50.878;8.036;2023-11-19T13:15:50;16.48;;;2.35;;
28353;SDS011;15603;50.878;8.036;2023-11-19T13:18:17;16.45;;;2.72;;
28353;SDS011;15603;50.878;8.036;2023-11-19T13:20:44;20.60;;;3.17;;
28353;SDS011;15603;50.878;8.036;2023-11-19T13:23:11;8.48;;;1.75;;
28353;SDS011;15603;50.878;8.036;2023-11-19T13:25:38;31.77;;;4.10;;
28353;SDS011;15603;50.878;8.036;2023-11-19T13:28:05;14.65;;;2.28;;
28353;SDS011;15603;50.878;8.036;2023-11-19T13:30:33;19.02;;;2.10;;
28353;SDS011;15603;50.878;8.036;2023-11-19T13:33:00;15.30;;;2.38;;
28353;SDS011;15603;50.878;8.036;2023-11-19T13:35:28;23.25;;;2.53;;
28353;SDS011;15603;50.878;8.036;2023-11-19T13:37:55;17.40;;;2.88;;
28353;SDS011;15603;50.878;8.036;2023-11-19T13:40:22;14.18;;;2.20;;
28353;SDS011;15603;50.878;8.036;2023-11-19T13:42:51;13.10;;;2.38;;
28353;SDS011;15603;50.878;8.036;2023-11-19T13:45:19;11.15;;;1.48;;
28353;SDS011;15603;50.878;8.036;2023-11-19T13:47:47;17.00;;;1.90;;
28353;SDS011;15603;50.878;8.036;2023-11-19T13:50:15;13.02;;;1.65;;
28353;SDS011;15603;50.878;8.036;2023-11-19T13:52:47;15.65;;;2.97;;
28353;SDS011;15603;50.878;8.036;2023-11-19T13:55:15;12.88;;;1.90;;
28353;SDS011;15603;50.878;8.036;2023-11-19T13:57:42;15.07;;;2.38;;
28353;SDS011;15603;50.878;8.036;2023-11-19T14:00:11;13.05;;;1.88;;
28353;SDS011;15603;50.878;8.036;2023-11-19T14:02:43;12.73;;;2.38;;
28353;SDS011;15603;50.878;8.036;2023-11-19T14:05:10;13.15;;;2.65;;
28353;SDS011;15603;50.878;8.036;2023-11-19T14:07:39;13.30;;;1.70;;
28353;SDS011;15603;50.878;8.036;2023-11-19T14:10:07;18.02;;;1.83;;
28353;SDS011;15603;50.878;8.036;2023-11-19T14:12:41;8.23;;;1.85;;
28353;SDS011;15603;50.878;8.036;2023-11-19T14:15:09;14.75;;;2.20;;
28353;SDS011;15603;50.878;8.036;2023-11-19T14:17:36;8.68;;;1.20;;
28353;SDS011;15603;50.878;8.036;2023-11-19T14:20:04;11.80;;;2.00;;
28353;SDS011;15603;50.878;8.036;2023-11-19T14:22:39;10.27;;;1.25;;
28353;SDS011;15603;50.878;8.036;2023-11-19T14:25:07;17.70;;;2.13;;
28353;SDS011;15603;50.878;8.036;2023-11-19T14:27:37;17.52;;;1.83;;
28353;SDS011;15603;50.878;8.036;2023-11-19T14:30:06;13.32;;;2.05;;
28353;SDS011;15603;50.878;8.036;2023-11-19T14:32:35;11.32;;;1.58;;
28353;SDS011;15603;50.878;8.036;2023-11-19T14:35:03;15.30;;;2.33;;
28353;SDS011;15603;50.878;8.036;2023-11-19T14:37:31;23.55;;;2.22;;
28353;SDS011;15603;50.878;8.036;2023-11-19T14:39:59;15.85;;;2.08;;
28353;SDS011;15603;50.878;8.036;2023-11-19T14:42:27;25.42;;;2.03;;
28353;SDS011;15603;50.878;8.036;2023-11-19T14:44:54;12.25;;;2.15;;
28353;SDS011;15603;50.878;8.036;2023-11-19T14:47:22;28.00;;;2.33;;
28353;SDS011;15603;50.878;8.036;2023-11-19T14:49:50;13.73;;;2.15;;
28353;SDS011;15603;50.878;8.036;2023-11-19T14:52:18;10.80;;;1.77;;
28353;SDS011;15603;50.878;8.036;2023-11-19T14:54:45;15.57;;;1.55;;
28353;SDS011;15603;50.878;8.036;2023-11-19T14:57:12;12.82;;;1.60;;
28353;SDS011;15603;50.878;8.036;2023-11-19T14:59:40;20.52;;;1.92;;
28353;SDS011;15603;50.878;8.036;2023-11-19T15:02:07;18.48;;;2.05;;
28353;SDS011;15603;50.878;8.036;2023-11-19T15:04:34;14.88;;;2.22;;
28353;SDS011;15603;50.878;8.036;2023-11-19T15:07:01;13.23;;;1.75;;
28353;SDS011;15603;50.878;8.036;2023-11-19T15:09:31;13.43;;;1.83;;
28353;SDS011;15603;50.878;8.036;2023-11-19T15:11:59;8.00;;;1.35;;
28353;SDS011;15603;50.878;8.036;2023-11-19T15:14:26;12.52;;;2.33;;
28353;SDS011;15603;50.878;8.036;2023-11-19T15:16:53;14.77;;;2.00;;
28353;SDS011;15603;50.878;8.036;2023-11-19T15:19:20;23.40;;;2.85;;
28353;SDS011;15603;50.878;8.036;2023-11-19T15:21:47;11.90;;;1.55;;
28353;SDS011;15603;50.878;8.036;2023-11-19T15:24:15;11.13;;;1.70;;